Fort Wayne, Indiana
Current Conditions -  °F | °C
As of 4:54 PM on Friday 31 Oct 2014 (Local Time) from KFWA Reporting Station
Light Rain Light Rain  
Wind Chill: -2°   Ceiling: 3400
Heat Index:   Visibility: 9mi
Dew Point:   Wind: 24mph
Humidity: 86%   Direction: 360°N
Pressure: 29.95"   Gusts: 32mph
Location:  41.08°N, 85.1°W
Report Text: KFWA 312054Z 36021G28KT 9SM -RA SCT017 BKN034 OVC045 04/02 A2995 RMK AO2 PK WND 35028/2053 RAB41 SLP148 P0000 60000 T00390017 53011
Loading
Personal Weather Stations






























Interactive Weather Map New forecast layout! Learn more

10-Day Weather Forecast

Advertisements
Track Severe Weather on mobile